createdAt,value
2023-04-14T00:01:00.502Z,93.00
2023-04-14T00:03:27.208Z,94.69
2023-04-14T00:05:53.813Z,91.78
2023-04-14T00:08:20.394Z,92.07
2023-04-14T00:10:47.000Z,93.27
2023-04-14T00:13:13.453Z,93.53
2023-04-14T00:15:41.606Z,92.01
2023-04-14T00:18:08.134Z,92.27
2023-04-14T00:20:34.771Z,95.87
2023-04-14T00:23:01.233Z,94.91
2023-04-14T00:25:27.717Z,94.82
2023-04-14T00:27:54.384Z,94.85
2023-04-14T00:30:20.877Z,95.91
2023-04-14T00:32:47.427Z,94.90
2023-04-14T00:35:13.935Z,94.51
2023-04-14T00:37:40.396Z,93.56
2023-04-14T00:40:11.031Z,93.18
2023-04-14T00:42:47.054Z,93.71
2023-04-14T00:45:14.390Z,93.83
2023-04-14T00:47:42.232Z,94.95
2023-04-14T00:50:09.329Z,92.83
2023-04-14T00:52:37.131Z,93.18
2023-04-14T00:55:07.293Z,93.67
2023-04-14T00:57:33.955Z,93.24
2023-04-14T01:00:00.874Z,93.50
2023-04-14T01:02:27.731Z,93.57
2023-04-14T01:04:55.002Z,94.78
2023-04-14T01:07:23.017Z,95.60
2023-04-14T01:09:50.249Z,94.51
2023-04-14T01:12:35.991Z,93.37
2023-04-14T01:15:12.677Z,92.79
2023-04-14T01:17:45.972Z,93.06
2023-04-14T01:20:22.884Z,93.88
2023-04-14T01:22:53.815Z,93.61
2023-04-14T01:25:22.243Z,92.87
2023-04-14T01:27:55.010Z,92.65
2023-04-14T01:30:31.108Z,92.30
2023-04-14T01:33:01.495Z,92.63
2023-04-14T01:35:34.758Z,94.26
2023-04-14T01:38:04.995Z,94.16
2023-04-14T01:40:32.591Z,93.71
2023-04-14T01:43:04.001Z,94.00
2023-04-14T01:45:42.985Z,93.47
2023-04-14T01:48:11.677Z,93.77
2023-04-14T01:50:41.051Z,91.26
2023-04-14T01:53:08.728Z,92.73
2023-04-14T01:55:37.801Z,95.80
2023-04-14T01:58:07.080Z,95.41
2023-04-14T02:00:35.618Z,94.21
2023-04-14T02:03:03.932Z,93.88
2023-04-14T02:05:32.055Z,95.19
2023-04-14T02:07:59.740Z,93.06
2023-04-14T02:10:27.581Z,93.09
2023-04-14T02:12:57.096Z,93.37
2023-04-14T02:15:25.818Z,92.77
2023-04-14T02:17:52.766Z,94.03
2023-04-14T02:20:21.153Z,93.02
2023-04-14T02:22:47.839Z,91.43
2023-04-14T02:25:14.385Z,92.45
2023-04-14T02:27:54.566Z,92.24
2023-04-14T02:30:24.306Z,92.50
2023-04-14T02:32:55.546Z,92.25
2023-04-14T02:35:26.800Z,92.04
2023-04-14T02:38:04.782Z,92.63
2023-04-14T02:40:35.138Z,93.50
2023-04-14T02:43:04.512Z,93.40
2023-04-14T02:45:32.428Z,93.53
2023-04-14T02:48:01.606Z,93.41
2023-04-14T02:50:32.226Z,92.44
2023-04-14T02:53:07.553Z,92.15
2023-04-14T02:55:37.471Z,90.73
2023-04-14T02:58:04.781Z,91.36
2023-04-14T03:00:35.740Z,91.54
2023-04-14T03:03:03.974Z,92.28
2023-04-14T03:05:32.036Z,91.67
2023-04-14T03:08:08.294Z,91.90
2023-04-14T03:10:37.148Z,91.01
2023-04-14T03:13:04.803Z,90.63
2023-04-14T03:15:31.784Z,91.75
2023-04-14T03:17:58.744Z,91.38
2023-04-14T03:20:26.902Z,92.03
2023-04-14T03:23:05.139Z,93.61
2023-04-14T03:25:38.245Z,92.37
2023-04-14T03:28:13.526Z,92.21
2023-04-14T03:30:43.235Z,91.49
2023-04-14T03:33:12.211Z,92.03
2023-04-14T03:35:39.370Z,93.62
2023-04-14T03:38:09.725Z,93.68
2023-04-14T03:40:38.613Z,91.52
2023-04-14T03:43:09.775Z,92.90
2023-04-14T03:45:41.472Z,94.36
2023-04-14T03:48:11.849Z,94.93
2023-04-14T03:50:46.400Z,93.94
2023-04-14T03:53:14.986Z,94.39
2023-04-14T03:55:43.574Z,93.10
2023-04-14T03:58:12.059Z,92.67
2023-04-14T04:00:40.065Z,93.19
2023-04-14T04:03:06.807Z,92.97
2023-04-14T04:05:33.808Z,93.13
2023-04-14T04:08:03.118Z,94.26
2023-04-14T04:10:32.792Z,93.56
2023-04-14T04:13:00.730Z,93.84
2023-04-14T04:15:31.318Z,94.27
2023-04-14T04:17:58.501Z,93.06
2023-04-14T04:20:26.011Z,93.40
2023-04-14T04:22:56.416Z,94.29
2023-04-14T04:25:23.142Z,95.96
2023-04-14T04:27:59.767Z,96.38
2023-04-14T04:30:27.787Z,95.23
2023-04-14T04:32:54.528Z,95.03
2023-04-14T04:35:22.275Z,93.41
2023-04-14T04:37:49.781Z,94.00
2023-04-14T04:40:16.870Z,92.83
2023-04-14T04:42:44.101Z,92.89
2023-04-14T04:45:19.271Z,92.57
2023-04-14T04:47:46.085Z,92.21
2023-04-14T04:50:13.690Z,92.14
2023-04-14T04:52:40.630Z,93.02
2023-04-14T04:55:07.354Z,91.78
2023-04-14T04:57:33.815Z,90.79
2023-04-14T05:00:00.641Z,93.09
2023-04-14T05:02:27.444Z,91.64
2023-04-14T05:04:54.163Z,91.52
2023-04-14T05:07:21.047Z,90.68
2023-04-14T05:09:47.499Z,89.78
2023-04-14T05:12:13.983Z,90.34
2023-04-14T05:14:40.413Z,90.23
2023-04-14T05:17:06.931Z,91.00
2023-04-14T05:19:33.403Z,90.17
2023-04-14T05:21:59.889Z,89.93
2023-04-14T05:24:27.295Z,90.20
2023-04-14T05:27:12.240Z,89.84
2023-04-14T05:29:40.002Z,90.11
2023-04-14T05:32:06.459Z,90.38
2023-04-14T05:34:32.937Z,89.50
2023-04-14T05:36:59.373Z,92.00
2023-04-14T05:39:25.879Z,92.77
2023-04-14T05:41:52.407Z,91.26
2023-04-14T05:44:18.869Z,90.74
2023-04-14T05:46:45.429Z,90.21
2023-04-14T05:49:11.926Z,90.41
2023-04-14T05:51:38.706Z,91.33
2023-04-14T05:54:05.757Z,90.16
2023-04-14T05:56:32.193Z,89.74
2023-04-14T05:58:58.664Z,89.73
2023-04-14T06:01:25.311Z,91.00
2023-04-14T06:03:51.880Z,90.98
2023-04-14T06:06:20.055Z,91.18
2023-04-14T06:08:46.498Z,89.72
2023-04-14T06:11:14.215Z,93.24
2023-04-14T06:13:40.805Z,92.99
2023-04-14T06:16:07.494Z,94.10
2023-04-14T06:18:34.004Z,93.87
2023-04-14T06:21:01.374Z,94.23
2023-04-14T06:23:28.056Z,94.01
2023-04-14T06:25:55.110Z,95.34
2023-04-14T06:28:23.969Z,94.95
2023-04-14T06:30:50.495Z,97.51
2023-04-14T06:33:16.962Z,96.51
2023-04-14T06:35:46.420Z,93.63
2023-04-14T06:38:12.917Z,92.80
2023-04-14T06:40:39.408Z,94.96
2023-04-14T06:43:06.329Z,93.15
2023-04-14T06:45:32.827Z,92.52
2023-04-14T06:47:59.508Z,93.32
2023-04-14T06:50:26.019Z,92.10
2023-04-14T06:52:52.482Z,91.55
2023-04-14T06:55:18.908Z,91.01
2023-04-14T06:57:45.628Z,92.22
2023-04-14T07:00:12.464Z,90.96
2023-04-14T07:02:39.222Z,91.07
2023-04-14T07:05:06.322Z,91.93
2023-04-14T07:07:36.964Z,92.85
2023-04-14T07:10:03.559Z,92.44
2023-04-14T07:12:30.344Z,90.09
2023-04-14T07:14:56.781Z,89.51
2023-04-14T07:17:23.297Z,90.84
2023-04-14T07:19:49.781Z,89.96
2023-04-14T07:22:16.661Z,91.01
2023-04-14T07:24:43.159Z,89.70
2023-04-14T07:27:15.070Z,89.81
2023-04-14T07:29:42.225Z,88.90
2023-04-14T07:32:08.784Z,88.42
2023-04-14T07:34:35.380Z,88.59
2023-04-14T07:37:02.139Z,88.00
2023-04-14T07:39:29.484Z,88.09
2023-04-14T07:41:58.629Z,87.30
2023-04-14T07:44:25.174Z,87.91
2023-04-14T07:46:51.713Z,90.61
2023-04-14T07:49:18.245Z,89.78
2023-04-14T07:51:44.792Z,88.17
2023-04-14T07:54:11.476Z,89.17
2023-04-14T07:56:37.974Z,89.11
2023-04-14T07:59:04.415Z,89.51
2023-04-14T08:01:30.990Z,88.16
2023-04-14T08:03:57.787Z,89.36
2023-04-14T08:06:24.445Z,87.79
2023-04-14T08:08:51.692Z,86.99
2023-04-14T08:11:18.131Z,87.92
2023-04-14T08:13:44.702Z,89.43
2023-04-14T08:16:11.252Z,90.47
2023-04-14T08:18:39.367Z,89.50
2023-04-14T08:21:05.886Z,88.37
2023-04-14T08:23:32.492Z,87.63
2023-04-14T08:25:59.032Z,87.56
2023-04-14T08:28:25.757Z,86.45
2023-04-14T08:30:52.211Z,86.58
2023-04-14T08:33:18.751Z,85.63
2023-04-14T08:35:45.414Z,85.94
2023-04-14T08:38:12.579Z,87.63
2023-04-14T08:40:43.301Z,86.24
2023-04-14T08:43:13.014Z,87.91
2023-04-14T08:45:41.879Z,86.15
2023-04-14T08:48:09.151Z,87.23
2023-04-14T08:50:37.667Z,86.84
2023-04-14T08:53:06.088Z,88.95
2023-04-14T08:55:33.411Z,86.18
2023-04-14T08:58:01.228Z,84.47
2023-04-14T09:00:27.857Z,85.61
2023-04-14T09:02:54.925Z,85.39
2023-04-14T09:05:21.897Z,86.97
2023-04-14T09:07:48.543Z,86.08
2023-04-14T09:10:15.386Z,87.03
2023-04-14T09:12:42.259Z,86.81
2023-04-14T09:15:09.269Z,85.39
2023-04-14T09:17:36.768Z,88.04
2023-04-14T09:20:34.788Z,87.58
2023-04-14T09:22:50.240Z,85.45
2023-04-14T09:25:18.666Z,86.07
2023-04-14T09:27:45.523Z,89.11
2023-04-14T09:30:12.237Z,87.61
2023-04-14T09:32:39.794Z,88.61
2023-04-14T09:35:07.011Z,89.35
2023-04-14T09:37:43.784Z,85.68
2023-04-14T09:40:11.201Z,85.17
2023-04-14T09:42:41.456Z,87.76
2023-04-14T09:45:08.408Z,84.78
2023-04-14T09:47:35.030Z,84.39
2023-04-14T09:50:03.461Z,84.13
2023-04-14T09:52:37.799Z,83.61
2023-04-14T09:55:06.904Z,81.10
2023-04-14T09:57:34.638Z,82.21
2023-04-14T10:00:01.295Z,80.95
2023-04-14T10:02:27.883Z,80.81
2023-04-14T10:05:07.204Z,81.16
2023-04-14T10:07:33.800Z,78.66
2023-04-14T10:10:06.020Z,82.35
2023-04-14T10:12:32.743Z,80.16
2023-04-14T10:15:00.164Z,77.89
2023-04-14T10:17:29.503Z,81.64
2023-04-14T10:19:56.850Z,81.44
2023-04-14T10:22:23.652Z,81.03
2023-04-14T10:24:51.268Z,81.15
2023-04-14T10:27:18.094Z,79.77
2023-04-14T10:29:44.598Z,79.41
2023-04-14T10:32:14.093Z,82.38
2023-04-14T10:34:53.299Z,81.15
2023-04-14T10:37:19.931Z,83.15
2023-04-14T10:39:54.376Z,81.48
2023-04-14T10:42:21.181Z,81.88
2023-04-14T10:45:01.188Z,78.15
2023-04-14T10:47:28.101Z,79.52
2023-04-14T10:49:56.705Z,80.71
2023-04-14T10:52:26.378Z,81.95
2023-04-14T10:55:07.654Z,80.12
2023-04-14T10:57:40.814Z,81.52
2023-04-14T11:00:19.616Z,83.41
2023-04-14T11:02:58.445Z,79.07
2023-04-14T11:05:25.693Z,80.33
2023-04-14T11:07:56.672Z,79.62
2023-04-14T11:10:24.031Z,79.18
2023-04-14T11:13:04.132Z,80.09
2023-04-14T11:15:50.667Z,79.00
2023-04-14T11:18:26.032Z,80.39
2023-04-14T11:20:53.054Z,80.84
2023-04-14T11:23:26.386Z,78.05
2023-04-14T11:25:53.649Z,80.87
2023-04-14T11:28:32.559Z,81.72
2023-04-14T11:31:00.521Z,77.54
2023-04-14T11:33:37.228Z,77.94
2023-04-14T11:36:05.636Z,78.97
2023-04-14T11:38:35.465Z,78.67
2023-04-14T11:41:02.283Z,78.63
2023-04-14T11:43:30.636Z,80.47
2023-04-14T11:45:57.555Z,79.73
2023-04-14T11:48:24.146Z,78.77
2023-04-14T11:50:50.890Z,80.07
2023-04-14T11:53:18.217Z,77.38
2023-04-14T11:55:46.328Z,78.09
2023-04-14T11:58:13.225Z,77.76
2023-04-14T12:00:41.020Z,77.81
2023-04-14T12:03:08.010Z,78.86
2023-04-14T12:05:35.597Z,76.35
2023-04-14T12:08:07.562Z,77.82
2023-04-14T12:10:37.340Z,78.36
2023-04-14T12:13:04.909Z,77.45
2023-04-14T12:15:32.503Z,80.09
2023-04-14T12:17:59.970Z,79.44
2023-04-14T12:20:27.166Z,78.13
2023-04-14T12:23:01.150Z,77.01
2023-04-14T12:25:31.368Z,76.59
2023-04-14T12:27:57.925Z,75.32
2023-04-14T12:30:26.325Z,72.41
2023-04-14T12:32:52.983Z,74.70
2023-04-14T12:35:23.920Z,77.30
2023-04-14T12:37:51.580Z,79.80
2023-04-14T12:40:18.551Z,79.65
2023-04-14T12:42:47.368Z,77.74
2023-04-14T12:45:14.817Z,77.99
2023-04-14T12:47:41.709Z,77.09
2023-04-14T12:50:25.849Z,79.23
2023-04-14T12:52:52.529Z,77.74
2023-04-14T12:55:23.082Z,74.50
2023-04-14T12:57:53.688Z,71.53
2023-04-14T13:00:23.933Z,74.23
2023-04-14T13:02:51.335Z,72.95
2023-04-14T13:05:18.017Z,72.95
2023-04-14T13:07:44.509Z,74.32
2023-04-14T13:10:11.444Z,74.91
2023-04-14T13:12:38.247Z,74.13
2023-04-14T13:15:05.601Z,72.48
2023-04-14T13:17:32.421Z,76.05
2023-04-14T13:19:59.035Z,71.47
2023-04-14T13:22:25.687Z,70.14
2023-04-14T13:24:52.355Z,69.46
2023-04-14T13:27:19.307Z,69.12
2023-04-14T13:29:46.095Z,68.59
2023-04-14T13:32:12.939Z,68.25
2023-04-14T13:34:39.960Z,70.12
2023-04-14T13:37:06.515Z,67.22
2023-04-14T13:39:33.100Z,70.24
2023-04-14T13:41:59.636Z,70.77
2023-04-14T13:44:26.140Z,69.73
2023-04-14T13:46:52.769Z,67.98
2023-04-14T13:49:19.333Z,70.21
2023-04-14T13:51:45.894Z,71.43
2023-04-14T13:54:12.328Z,72.01
2023-04-14T13:56:38.824Z,72.29
2023-04-14T13:59:05.345Z,73.56
2023-04-14T14:01:31.933Z,72.63
2023-04-14T14:03:58.959Z,73.63
2023-04-14T14:06:33.910Z,73.78
2023-04-14T14:09:06.066Z,73.75
2023-04-14T14:11:33.330Z,77.60
2023-04-14T14:14:00.269Z,75.41
2023-04-14T14:18:57.227Z,80.78
2023-04-14T14:21:23.712Z,82.58
2023-04-14T14:23:50.238Z,84.42
2023-04-14T14:26:16.755Z,83.16
2023-04-14T14:28:44.527Z,83.07
2023-04-14T14:31:11.092Z,80.18
2023-04-14T14:33:38.095Z,80.39
2023-04-14T14:36:05.101Z,80.29
2023-04-14T14:38:31.639Z,83.28
2023-04-14T14:40:58.103Z,84.03
2023-04-14T14:43:24.627Z,86.98
2023-04-14T14:45:51.260Z,88.70
2023-04-14T14:48:17.829Z,90.57
2023-04-14T14:50:44.322Z,89.21
2023-04-14T14:53:10.727Z,91.48
2023-04-14T14:55:37.213Z,90.96
2023-04-14T14:58:03.910Z,90.97
2023-04-14T15:00:30.753Z,89.01
2023-04-14T15:02:57.488Z,89.69
2023-04-14T15:05:24.129Z,89.75
2023-04-14T15:07:50.983Z,91.41
2023-04-14T15:10:17.569Z,90.94
2023-04-14T15:12:44.085Z,90.61
2023-04-14T15:15:10.778Z,90.36
2023-04-14T15:17:37.716Z,89.02
2023-04-14T15:20:04.876Z,88.43
2023-04-14T15:22:32.088Z,90.51
2023-04-14T15:24:58.605Z,89.66
2023-04-14T15:27:25.350Z,89.45
2023-04-14T15:29:51.829Z,91.30
2023-04-14T15:32:24.209Z,91.39
2023-04-14T15:34:52.112Z,92.10
2023-04-14T15:37:18.675Z,91.60
2023-04-14T15:39:45.335Z,90.50
2023-04-14T15:42:11.851Z,90.16
2023-04-14T15:44:38.340Z,90.71
2023-04-14T15:47:05.140Z,90.36
2023-04-14T15:49:31.649Z,90.28
2023-04-14T15:51:58.125Z,91.08
2023-04-14T15:54:24.813Z,88.85
2023-04-14T15:56:52.479Z,85.01
2023-04-14T15:59:19.052Z,87.57
2023-04-14T16:01:46.377Z,88.62
2023-04-14T16:04:13.149Z,89.36
2023-04-14T16:06:40.133Z,89.93
2023-04-14T16:09:06.895Z,90.43
2023-04-14T16:11:36.375Z,88.49
2023-04-14T16:14:03.213Z,88.90
2023-04-14T16:16:29.952Z,88.22
2023-04-14T16:18:56.493Z,88.39
2023-04-14T16:21:22.952Z,89.27
2023-04-14T16:23:49.442Z,88.36
2023-04-14T16:26:15.995Z,88.68
2023-04-14T16:28:42.765Z,89.29
2023-04-14T16:31:09.457Z,89.92
2023-04-14T16:33:36.042Z,90.49
2023-04-14T16:36:03.066Z,90.44
2023-04-14T16:38:29.756Z,90.61
2023-04-14T16:40:57.318Z,90.04
2023-04-14T16:43:24.876Z,90.74
2023-04-14T16:45:51.890Z,89.62
2023-04-14T16:48:18.886Z,89.43
2023-04-14T16:50:48.691Z,90.04
2023-04-14T16:53:15.249Z,91.13
2023-04-14T16:55:41.852Z,91.36
2023-04-14T16:58:09.774Z,91.27
2023-04-14T17:00:37.446Z,93.13
2023-04-14T17:03:04.751Z,92.71
2023-04-14T17:05:31.637Z,93.64
2023-04-14T17:07:58.483Z,94.71
2023-04-14T17:10:26.257Z,94.72
2023-04-14T17:12:53.721Z,93.26
2023-04-14T17:15:20.221Z,91.15
2023-04-14T17:17:46.758Z,94.48
2023-04-14T17:20:14.942Z,93.78
2023-04-14T17:22:41.819Z,94.43
2023-04-14T17:25:08.662Z,94.35
2023-04-14T17:27:35.111Z,94.25
2023-04-14T17:30:03.158Z,92.97
2023-04-14T17:32:29.667Z,94.10
2023-04-14T17:34:56.657Z,95.25
2023-04-14T17:37:23.450Z,93.30
2023-04-14T17:39:50.007Z,93.96
2023-04-14T17:42:16.569Z,93.79
2023-04-14T17:44:43.483Z,95.52
2023-04-14T17:47:16.772Z,96.67
2023-04-14T17:49:43.977Z,97.57
2023-04-14T17:52:19.532Z,97.79
2023-04-14T17:54:46.559Z,97.47
2023-04-14T17:57:13.239Z,96.92
2023-04-14T17:59:41.455Z,98.35
2023-04-14T18:02:08.965Z,97.78
2023-04-14T18:04:35.927Z,98.07
2023-04-14T18:07:02.526Z,98.47
2023-04-14T18:09:29.120Z,98.93
2023-04-14T18:11:56.151Z,100.00
2023-04-14T18:14:22.633Z,100.00
2023-04-14T18:16:49.238Z,100.00
2023-04-14T18:19:15.879Z,100.00
2023-04-14T18:21:44.433Z,99.82
2023-04-14T18:26:42.084Z,99.52
2023-04-14T18:29:08.600Z,98.70
2023-04-14T18:31:35.278Z,98.84
2023-04-14T18:34:05.572Z,99.52
2023-04-14T18:36:32.626Z,98.96
2023-04-14T18:39:00.160Z,98.28
2023-04-14T18:41:26.975Z,97.42
2023-04-14T18:43:53.660Z,97.97
2023-04-14T18:46:21.313Z,96.87
2023-04-14T18:48:48.425Z,97.23
2023-04-14T18:51:16.024Z,96.41
2023-04-14T18:53:44.626Z,96.14
2023-04-14T18:56:11.233Z,97.26
2023-04-14T18:58:38.245Z,97.74
2023-04-14T19:01:04.790Z,97.65
2023-04-14T19:03:31.870Z,98.52
2023-04-14T19:05:58.985Z,99.32
2023-04-14T19:08:25.698Z,99.27
2023-04-14T19:10:52.435Z,98.91
2023-04-14T19:13:19.628Z,99.69
2023-04-14T19:15:46.153Z,99.70
2023-04-14T19:18:12.654Z,99.74
2023-04-14T19:20:39.173Z,99.35
2023-04-14T19:23:05.682Z,98.03
2023-04-14T19:25:32.219Z,97.02
2023-04-14T19:28:01.193Z,99.05
2023-04-14T19:30:29.022Z,98.70
2023-04-14T19:32:55.528Z,98.94
2023-04-14T19:35:22.490Z,98.83
2023-04-14T19:37:49.061Z,99.71
2023-04-14T19:40:15.652Z,99.92
2023-04-14T19:42:42.195Z,100.00
2023-04-14T19:45:10.236Z,99.67
2023-04-14T19:47:36.696Z,100.00
2023-04-14T19:50:04.377Z,99.37
2023-04-14T19:52:30.843Z,99.53
2023-04-14T19:54:58.161Z,98.74
2023-04-14T19:57:24.787Z,99.48
2023-04-14T19:59:51.306Z,97.67
2023-04-14T20:02:18.856Z,97.79
2023-04-14T20:04:46.781Z,97.85
2023-04-14T20:07:13.389Z,97.73
2023-04-14T20:09:44.844Z,98.08
2023-04-14T20:12:11.389Z,98.87
2023-04-14T20:14:37.865Z,98.50
2023-04-14T20:17:04.459Z,98.91
2023-04-14T20:19:31.082Z,99.33
2023-04-14T20:21:57.851Z,99.40
2023-04-14T20:24:24.394Z,99.75
2023-04-14T20:26:50.883Z,99.45
2023-04-14T20:29:17.498Z,99.56
2023-04-14T20:31:44.246Z,98.33
2023-04-14T20:34:11.556Z,99.07
2023-04-14T20:36:38.037Z,98.52
2023-04-14T20:39:05.792Z,98.09
2023-04-14T20:41:36.540Z,98.06
2023-04-14T20:44:06.206Z,96.36
2023-04-14T20:46:32.913Z,96.55
2023-04-14T20:49:01.046Z,97.36
2023-04-14T20:51:27.915Z,94.44
2023-04-14T20:53:55.200Z,95.51
2023-04-14T20:56:22.518Z,97.07
2023-04-14T20:58:49.185Z,95.79
2023-04-14T21:01:15.652Z,96.97
2023-04-14T21:03:42.281Z,97.07
2023-04-14T21:06:08.895Z,97.67
2023-04-14T21:08:35.722Z,97.72
2023-04-14T21:11:15.622Z,99.25
2023-04-14T21:15:43.559Z,99.61
2023-04-14T21:16:31.011Z,99.46
2023-04-14T21:18:57.514Z,100.00
2023-04-14T21:21:24.133Z,100.00
2023-04-14T21:23:50.878Z,100.00
2023-04-14T21:26:17.792Z,99.97
2023-04-14T21:28:44.267Z,100.00
2023-04-14T21:31:11.303Z,100.00
2023-04-14T21:33:39.641Z,100.00
2023-04-14T21:36:07.045Z,100.00
2023-04-14T21:38:33.606Z,100.00
2023-04-14T21:41:00.250Z,100.00
2023-04-14T21:43:26.770Z,100.00
2023-04-14T21:45:53.803Z,100.00
2023-04-14T21:48:20.847Z,100.00
2023-04-14T21:50:47.332Z,100.00
2023-04-14T21:53:14.120Z,100.00
2023-04-14T21:55:41.031Z,100.00
2023-04-14T21:58:07.560Z,100.00
2023-04-14T22:00:34.055Z,100.00
2023-04-14T22:03:00.707Z,100.00
2023-04-14T22:05:27.312Z,100.00
2023-04-14T22:07:54.963Z,100.00
2023-04-14T22:10:24.406Z,100.00
2023-04-14T22:12:52.048Z,100.00
2023-04-14T22:15:18.675Z,100.00
2023-04-14T22:17:46.069Z,100.00
2023-04-14T22:20:12.613Z,100.00
2023-04-14T22:22:39.113Z,100.00
2023-04-14T22:25:05.958Z,100.00
2023-04-14T22:27:33.865Z,100.00
2023-04-14T22:30:01.398Z,100.00
2023-04-14T22:32:28.276Z,100.00
2023-04-14T22:34:54.773Z,100.00
2023-04-14T22:37:21.469Z,100.00
2023-04-14T22:39:47.960Z,100.00
2023-04-14T22:42:14.417Z,100.00
2023-04-14T22:44:41.188Z,100.00
2023-04-14T22:47:07.660Z,100.00
2023-04-14T22:49:34.128Z,100.00
2023-04-14T22:52:00.840Z,100.00
2023-04-14T22:54:27.337Z,100.00
2023-04-14T22:56:53.863Z,100.00
2023-04-14T22:59:20.429Z,100.00
2023-04-14T23:01:47.827Z,100.00
2023-04-14T23:04:14.755Z,100.00
2023-04-14T23:06:41.350Z,100.00
2023-04-14T23:09:07.897Z,100.00
2023-04-14T23:11:34.564Z,100.00
2023-04-14T23:14:01.563Z,100.00
2023-04-14T23:16:28.245Z,100.00
2023-04-14T23:18:54.807Z,100.00
2023-04-14T23:21:25.051Z,100.00
2023-04-14T23:23:51.671Z,100.00
2023-04-14T23:26:19.631Z,100.00
2023-04-14T23:28:46.466Z,100.00
2023-04-14T23:31:13.323Z,100.00
2023-04-14T23:33:40.056Z,100.00
2023-04-14T23:36:06.950Z,100.00
2023-04-14T23:38:33.562Z,100.00
2023-04-14T23:41:00.376Z,100.00
2023-04-14T23:43:27.590Z,100.00
2023-04-14T23:45:54.266Z,100.00
2023-04-14T23:48:20.848Z,100.00
2023-04-14T23:50:58.676Z,100.00
2023-04-14T23:53:28.146Z,100.00
2023-04-14T23:55:54.737Z,100.00
2023-04-14T23:58:26.573Z,100.00
